Time;durP1;ratioP1;P1;durP2;ratioP2;P2;SDS_P1;SDS_P2;PMS_P1;PMS_P2;Temp;Humidity;BMP_temperature;BMP_pressure;BME280_temperature;BME280_humidity;BME280_pressure;Samples;Min_cycle;Max_cycle;Signal;HPM_P1;HPM_P2
2023/06/26 00:01:01;;;;;;;16.57;12.67;;;;;;;;;;5071616;28;20324;-58
2023/06/26 00:03:26;;;;;;;16.40;13.00;;;;;;;;;;5041681;28;20051;-61
2023/06/26 00:05:51;;;;;;;16.33;12.83;;;;;;;;;;5042564;28;20051;-60
2023/06/26 00:08:17;;;;;;;14.50;11.82;;;;;;;;;;5069282;28;20094;-59
2023/06/26 00:10:42;;;;;;;15.10;11.50;;;;;;;;;;5053500;28;20051;-60
2023/06/26 00:13:07;;;;;;;14.50;11.43;;;;;;;;;;5042253;28;20266;-59
2023/06/26 00:15:32;;;;;;;16.80;11.80;;;;;;;;;;5068717;28;20048;-58
2023/06/26 00:17:58;;;;;;;15.52;10.30;;;;;;;;;;5077423;28;20032;-58
2023/06/26 00:20:24;;;;;;;13.90;11.20;;;;;;;;;;5041300;28;20515;-58
2023/06/26 00:22:50;;;;;;;13.68;10.90;;;;;;;;;;5056263;28;20088;-59
2023/06/26 00:25:15;;;;;;;14.95;11.13;;;;;;;;;;5048893;28;20167;-59
2023/06/26 00:27:41;;;;;;;16.92;11.23;;;;;;;;;;5071077;28;20927;-58
2023/06/26 00:30:06;;;;;;;14.90;10.70;;;;;;;;;;5046676;28;20105;-59
2023/06/26 00:32:31;;;;;;;14.45;10.15;;;;;;;;;;5083458;28;20349;-59
2023/06/26 00:34:57;;;;;;;13.77;10.27;;;;;;;;;;5041099;28;20115;-58
2023/06/26 00:37:22;;;;;;;13.97;9.90;;;;;;;;;;5055270;28;20082;-62
2023/06/26 00:39:47;;;;;;;11.80;9.82;;;;;;;;;;5072484;28;20040;-59
2023/06/26 00:42:13;;;;;;;14.50;9.73;;;;;;;;;;5080476;28;20043;-59
2023/06/26 00:44:38;;;;;;;10.70;8.70;;;;;;;;;;5057878;28;20173;-58
2023/06/26 00:47:03;;;;;;;11.77;9.75;;;;;;;;;;5071595;28;20310;-59
2023/06/26 00:49:28;;;;;;;12.27;9.18;;;;;;;;;;5080005;28;20539;-58
2023/06/26 00:51:54;;;;;;;11.77;8.47;;;;;;;;;;5082178;28;20043;-58
2023/06/26 00:54:20;;;;;;;10.82;8.57;;;;;;;;;;5050410;28;20312;-58
2023/06/26 00:56:46;;;;;;;10.02;8.68;;;;;;;;;;5051485;28;20054;-58
2023/06/26 00:59:11;;;;;;;12.23;8.60;;;;;;;;;;5057625;28;20041;-59
2023/06/26 01:01:36;;;;;;;10.80;8.03;;;;;;;;;;5064074;28;20643;-58
2023/06/26 01:04:02;;;;;;;12.73;8.20;;;;;;;;;;5066313;28;20286;-59
2023/06/26 01:06:29;;;;;;;15.10;7.85;;;;;;;;;;5050362;28;20063;-58
2023/06/26 01:08:54;;;;;;;10.73;7.72;;;;;;;;;;5049116;28;20105;-59
2023/06/26 01:11:20;;;;;;;10.07;8.27;;;;;;;;;;5060038;28;20055;-58
2023/06/26 01:13:45;;;;;;;10.07;8.32;;;;;;;;;;5058927;28;20040;-58
2023/06/26 01:16:10;;;;;;;10.40;7.72;;;;;;;;;;5064725;28;20106;-60
2023/06/26 01:18:35;;;;;;;9.50;7.43;;;;;;;;;;5065477;28;20070;-59
2023/06/26 01:21:01;;;;;;;9.50;8.00;;;;;;;;;;5040101;28;20332;-58
2023/06/26 01:23:37;;;;;;;9.13;7.78;;;;;;;;;;5072461;28;20286;-59
2023/06/26 01:26:12;;;;;;;10.45;7.20;;;;;;;;;;5047763;28;20488;-60
2023/06/26 01:28:41;;;;;;;8.55;7.18;;;;;;;;;;5071793;28;20093;-60
2023/06/26 01:31:06;;;;;;;9.63;7.63;;;;;;;;;;5083911;28;20032;-58
2023/06/26 01:33:32;;;;;;;11.00;6.72;;;;;;;;;;5050422;28;20042;-58
2023/06/26 01:35:57;;;;;;;8.00;7.05;;;;;;;;;;5076993;28;20043;-59
2023/06/26 01:38:28;;;;;;;8.10;7.27;;;;;;;;;;5080831;28;20094;-61
2023/06/26 01:40:53;;;;;;;13.07;7.85;;;;;;;;;;5054359;28;20302;-60
2023/06/26 01:43:21;;;;;;;9.97;7.47;;;;;;;;;;5059638;28;20044;-58
2023/06/26 01:45:48;;;;;;;9.63;7.35;;;;;;;;;;5063055;28;21240;-58
2023/06/26 01:48:13;;;;;;;9.27;7.38;;;;;;;;;;5077245;28;20044;-58
2023/06/26 01:50:38;;;;;;;9.13;6.70;;;;;;;;;;5076343;28;20097;-60
2023/06/26 01:53:06;;;;;;;9.00;6.83;;;;;;;;;;5059955;28;20476;-59
2023/06/26 01:55:35;;;;;;;11.32;7.95;;;;;;;;;;5080740;28;20275;-58
2023/06/26 01:58:01;;;;;;;10.20;7.70;;;;;;;;;;5060549;28;20040;-58
2023/06/26 02:00:26;;;;;;;9.27;7.55;;;;;;;;;;5066285;28;20054;-58
2023/06/26 02:02:51;;;;;;;10.13;8.13;;;;;;;;;;5057341;28;20024;-60
2023/06/26 02:05:17;;;;;;;9.73;8.13;;;;;;;;;;5062377;28;20433;-59
2023/06/26 02:07:43;;;;;;;9.70;7.57;;;;;;;;;;5066811;28;20064;-59
2023/06/26 02:10:09;;;;;;;10.88;7.45;;;;;;;;;;5036549;28;20724;-59
2023/06/26 02:12:34;;;;;;;9.93;8.20;;;;;;;;;;5045424;28;20113;-58
2023/06/26 02:14:59;;;;;;;10.85;8.15;;;;;;;;;;5060674;28;20036;-60
2023/06/26 02:17:25;;;;;;;10.33;7.90;;;;;;;;;;5049060;28;20032;-58
2023/06/26 02:19:50;;;;;;;10.97;8.23;;;;;;;;;;5040054;28;20040;-60
2023/06/26 02:22:15;;;;;;;10.82;8.30;;;;;;;;;;5068371;28;20302;-60
2023/06/26 02:24:41;;;;;;;9.63;8.38;;;;;;;;;;5057380;28;20048;-59
2023/06/26 02:27:06;;;;;;;9.95;8.25;;;;;;;;;;5045058;28;20725;-58
2023/06/26 02:29:32;;;;;;;9.77;8.20;;;;;;;;;;5065110;28;20043;-58
2023/06/26 02:31:57;;;;;;;11.97;9.10;;;;;;;;;;5048711;28;20040;-59
2023/06/26 02:34:22;;;;;;;11.97;8.70;;;;;;;;;;5060741;28;20286;-59
2023/06/26 02:36:47;;;;;;;11.13;9.00;;;;;;;;;;5045324;28;20815;-60
2023/06/26 02:39:14;;;;;;;11.60;8.95;;;;;;;;;;5061261;28;20293;-58
2023/06/26 02:41:39;;;;;;;11.98;8.80;;;;;;;;;;5070896;28;20127;-59
2023/06/26 02:44:05;;;;;;;11.53;9.10;;;;;;;;;;5056528;28;20127;-58
2023/06/26 02:46:30;;;;;;;11.90;9.02;;;;;;;;;;5048479;28;20283;-58
2023/06/26 02:48:55;;;;;;;13.02;9.23;;;;;;;;;;5054905;28;20020;-60
2023/06/26 02:51:20;;;;;;;13.13;9.60;;;;;;;;;;5049017;28;20031;-59
2023/06/26 02:53:46;;;;;;;12.00;9.60;;;;;;;;;;5059584;28;20644;-58
2023/06/26 02:56:11;;;;;;;11.10;9.40;;;;;;;;;;5063705;28;20138;-59
2023/06/26 02:58:36;;;;;;;11.68;9.93;;;;;;;;;;5046892;28;20775;-61
2023/06/26 03:01:01;;;;;;;13.17;9.60;;;;;;;;;;5078590;28;20180;-58
2023/06/26 03:03:27;;;;;;;11.27;9.63;;;;;;;;;;5068329;28;20309;-59
2023/06/26 03:05:52;;;;;;;12.20;10.10;;;;;;;;;;5066234;28;20288;-59
2023/06/26 03:08:17;;;;;;;12.70;10.40;;;;;;;;;;5070453;28;20028;-61
2023/06/26 03:10:42;;;;;;;12.33;9.97;;;;;;;;;;5060166;28;20016;-59
2023/06/26 03:13:08;;;;;;;12.43;10.30;;;;;;;;;;5041095;28;20587;-59
2023/06/26 03:15:33;;;;;;;11.80;10.30;;;;;;;;;;5072868;28;20258;-59
2023/06/26 03:17:58;;;;;;;12.80;10.80;;;;;;;;;;5071077;28;20020;-58
2023/06/26 03:20:23;;;;;;;11.97;10.40;;;;;;;;;;5060720;28;20029;-59
2023/06/26 03:22:48;;;;;;;12.63;10.37;;;;;;;;;;5055954;28;20286;-58
2023/06/26 03:25:14;;;;;;;13.00;10.60;;;;;;;;;;5060496;28;20637;-59
2023/06/26 03:27:39;;;;;;;16.10;10.93;;;;;;;;;;5063654;28;20448;-58
2023/06/26 03:30:04;;;;;;;13.87;10.80;;;;;;;;;;5066309;28;20021;-59
2023/06/26 03:32:30;;;;;;;12.35;10.60;;;;;;;;;;5054014;28;20927;-58
2023/06/26 03:34:56;;;;;;;13.88;11.25;;;;;;;;;;5049512;28;20409;-59
2023/06/26 03:37:21;;;;;;;13.32;10.82;;;;;;;;;;5045179;28;20032;-59
2023/06/26 03:39:46;;;;;;;13.60;11.03;;;;;;;;;;5069209;28;20020;-59
2023/06/26 03:42:11;;;;;;;12.17;10.77;;;;;;;;;;5050565;28;20783;-58
2023/06/26 03:44:37;;;;;;;13.80;11.13;;;;;;;;;;5052899;28;20263;-61
2023/06/26 03:47:02;;;;;;;13.63;11.63;;;;;;;;;;5077854;28;20270;-60
2023/06/26 03:49:27;;;;;;;12.15;10.88;;;;;;;;;;5059936;28;20103;-62
2023/06/26 03:51:52;;;;;;;14.93;11.63;;;;;;;;;;5070986;28;20448;-62
2023/06/26 03:54:18;;;;;;;12.68;10.77;;;;;;;;;;5068680;28;20447;-60
2023/06/26 03:56:43;;;;;;;12.37;11.00;;;;;;;;;;5063988;28;20501;-59
2023/06/26 03:59:09;;;;;;;13.50;11.13;;;;;;;;;;5061501;28;20546;-58
2023/06/26 04:01:35;;;;;;;12.32;11.02;;;;;;;;;;5059490;28;20295;-61
2023/06/26 04:04:00;;;;;;;12.48;10.65;;;;;;;;;;5040286;28;20024;-62
2023/06/26 04:06:26;;;;;;;13.67;10.83;;;;;;;;;;5065262;28;20024;-61
2023/06/26 04:08:51;;;;;;;13.13;10.73;;;;;;;;;;5055546;28;20114;-59
2023/06/26 04:11:16;;;;;;;11.63;10.27;;;;;;;;;;5045044;28;20069;-58
2023/06/26 04:13:41;;;;;;;12.87;11.03;;;;;;;;;;5039514;28;20063;-58
2023/06/26 04:16:07;;;;;;;12.73;10.87;;;;;;;;;;5073140;28;20281;-57
2023/06/26 04:18:32;;;;;;;13.60;11.30;;;;;;;;;;5071486;28;20427;-58
2023/06/26 04:21:07;;;;;;;13.48;10.90;;;;;;;;;;5054345;28;20402;-56
2023/06/26 04:23:32;;;;;;;14.30;10.57;;;;;;;;;;5054516;28;20067;-56
2023/06/26 04:25:58;;;;;;;13.68;11.23;;;;;;;;;;5070179;28;20609;-59
2023/06/26 04:28:23;;;;;;;12.95;10.75;;;;;;;;;;5057647;28;20035;-58
2023/06/26 04:30:48;;;;;;;13.77;10.85;;;;;;;;;;5071082;28;20105;-60
2023/06/26 04:33:15;;;;;;;11.23;9.93;;;;;;;;;;5070455;28;20029;-59
2023/06/26 04:35:40;;;;;;;14.45;11.00;;;;;;;;;;5069611;28;20318;-59
2023/06/26 04:38:05;;;;;;;13.03;10.63;;;;;;;;;;5051563;28;20060;-60
2023/06/26 04:40:31;;;;;;;11.50;10.30;;;;;;;;;;5040288;28;20822;-59
2023/06/26 04:42:56;;;;;;;11.07;9.98;;;;;;;;;;5040980;28;20305;-59
2023/06/26 04:45:21;;;;;;;11.60;10.40;;;;;;;;;;5051165;28;20086;-56
2023/06/26 04:47:46;;;;;;;12.27;10.80;;;;;;;;;;5070108;28;20156;-58
2023/06/26 04:50:12;;;;;;;12.05;10.85;;;;;;;;;;5057868;28;20098;-58
2023/06/26 04:52:37;;;;;;;12.27;10.70;;;;;;;;;;5071304;28;20066;-59
2023/06/26 04:55:03;;;;;;;12.67;10.87;;;;;;;;;;5067938;28;20135;-58
2023/06/26 04:57:28;;;;;;;12.07;10.77;;;;;;;;;;5051311;28;20301;-58
2023/06/26 04:59:53;;;;;;;11.27;10.07;;;;;;;;;;5069181;28;20043;-59
2023/06/26 05:02:18;;;;;;;12.27;10.98;;;;;;;;;;5070230;28;20803;-59
2023/06/26 05:04:44;;;;;;;13.35;10.93;;;;;;;;;;5040648;28;20040;-58
2023/06/26 05:07:09;;;;;;;12.15;10.85;;;;;;;;;;5056774;28;20189;-59
2023/06/26 05:09:35;;;;;;;13.25;11.30;;;;;;;;;;5034195;28;20048;-57
2023/06/26 05:12:00;;;;;;;11.57;10.27;;;;;;;;;;5069342;28;20040;-59
2023/06/26 05:14:25;;;;;;;11.75;10.07;;;;;;;;;;5071223;28;20036;-58
2023/06/26 05:16:50;;;;;;;13.63;11.47;;;;;;;;;;5050968;28;20043;-59
2023/06/26 05:19:15;;;;;;;12.43;10.60;;;;;;;;;;5070816;28;20110;-59
2023/06/26 05:21:41;;;;;;;12.83;10.63;;;;;;;;;;5067777;28;20308;-58
2023/06/26 05:24:06;;;;;;;13.07;10.43;;;;;;;;;;5039178;28;20846;-58
2023/06/26 05:26:32;;;;;;;12.50;11.00;;;;;;;;;;5067974;28;20380;-59
2023/06/26 05:28:57;;;;;;;12.18;9.98;;;;;;;;;;5039643;28;20028;-59
2023/06/26 05:31:23;;;;;;;13.23;10.75;;;;;;;;;;5067674;27;20048;-60
2023/06/26 05:33:48;;;;;;;12.32;9.85;;;;;;;;;;5038990;28;20513;-60
2023/06/26 05:36:13;;;;;;;11.70;10.47;;;;;;;;;;5049153;28;20044;-59
2023/06/26 05:38:39;;;;;;;11.57;9.73;;;;;;;;;;5039978;28;20694;-60
2023/06/26 05:41:04;;;;;;;12.82;9.98;;;;;;;;;;5051179;28;20947;-59
2023/06/26 05:43:29;;;;;;;12.52;10.73;;;;;;;;;;5067945;28;20040;-59
2023/06/26 05:45:56;;;;;;;12.03;9.97;;;;;;;;;;5046890;28;20521;-60
2023/06/26 05:48:21;;;;;;;11.05;9.93;;;;;;;;;;5056987;28;20294;-60
2023/06/26 05:50:46;;;;;;;13.07;10.33;;;;;;;;;;5067817;28;20464;-58
2023/06/26 05:53:12;;;;;;;14.40;10.85;;;;;;;;;;5049691;28;20039;-59
2023/06/26 05:55:37;;;;;;;11.85;10.45;;;;;;;;;;5070112;28;20120;-58
2023/06/26 05:58:03;;;;;;;11.63;9.77;;;;;;;;;;5068390;28;20131;-59
2023/06/26 06:00:28;;;;;;;12.57;10.38;;;;;;;;;;5070071;28;20086;-59
2023/06/26 06:02:54;;;;;;;12.80;10.48;;;;;;;;;;5055374;28;20502;-59
2023/06/26 06:05:20;;;;;;;11.25;9.38;;;;;;;;;;5049007;28;20063;-61
2023/06/26 06:07:45;;;;;;;13.35;9.73;;;;;;;;;;5051378;28;20079;-59
2023/06/26 06:10:10;;;;;;;14.57;9.90;;;;;;;;;;5068825;28;20040;-58
2023/06/26 06:12:35;;;;;;;11.95;9.55;;;;;;;;;;5069300;28;20294;-61
2023/06/26 06:15:01;;;;;;;11.47;9.33;;;;;;;;;;5049708;28;20055;-59
2023/06/26 06:17:26;;;;;;;12.27;9.97;;;;;;;;;;5067772;28;20286;-59
2023/06/26 06:19:51;;;;;;;11.63;10.05;;;;;;;;;;5069247;28;20048;-59
2023/06/26 06:22:17;;;;;;;11.20;9.00;;;;;;;;;;5067465;28;20051;-60
2023/06/26 06:24:43;;;;;;;11.20;9.65;;;;;;;;;;5067745;28;20426;-60
2023/06/26 06:27:09;;;;;;;12.70;9.48;;;;;;;;;;5067171;28;20047;-59
2023/06/26 06:29:34;;;;;;;10.13;8.90;;;;;;;;;;5050638;28;20024;-59
2023/06/26 06:31:59;;;;;;;11.20;9.23;;;;;;;;;;5039401;28;20507;-58
2023/06/26 06:34:24;;;;;;;12.80;9.43;;;;;;;;;;5050182;28;20044;-60
2023/06/26 06:36:50;;;;;;;11.60;9.23;;;;;;;;;;5049516;28;20290;-58
2023/06/26 06:39:15;;;;;;;10.50;8.88;;;;;;;;;;5068407;28;20433;-58
2023/06/26 06:41:40;;;;;;;12.40;8.60;;;;;;;;;;5055258;28;20514;-59
2023/06/26 06:44:05;;;;;;;13.47;9.30;;;;;;;;;;5055293;28;21970;-61
2023/06/26 06:46:31;;;;;;;13.33;9.10;;;;;;;;;;5054977;28;20040;-59
2023/06/26 06:48:56;;;;;;;11.03;9.13;;;;;;;;;;5033823;28;20059;-59
2023/06/26 06:51:21;;;;;;;13.37;9.30;;;;;;;;;;5039624;28;20061;-59
2023/06/26 06:53:47;;;;;;;12.00;8.88;;;;;;;;;;5068749;28;20189;-59
2023/06/26 06:56:12;;;;;;;12.63;9.17;;;;;;;;;;5055714;28;20073;-59
2023/06/26 06:58:37;;;;;;;11.87;8.70;;;;;;;;;;5067830;28;20052;-60
2023/06/26 07:01:04;;;;;;;11.10;9.20;;;;;;;;;;5067527;28;20044;-60
2023/06/26 07:03:29;;;;;;;11.07;8.05;;;;;;;;;;5068528;28;20610;-59
2023/06/26 07:05:55;;;;;;;12.07;8.50;;;;;;;;;;5049222;28;20036;-59
2023/06/26 07:08:20;;;;;;;12.15;8.10;;;;;;;;;;5068258;28;20135;-60
2023/06/26 07:10:45;;;;;;;10.57;7.70;;;;;;;;;;5055897;28;20052;-59
2023/06/26 07:13:11;;;;;;;10.87;8.23;;;;;;;;;;5068684;28;20032;-59
2023/06/26 07:15:36;;;;;;;8.83;7.50;;;;;;;;;;5055750;28;20328;-59
2023/06/26 07:18:01;;;;;;;9.95;7.97;;;;;;;;;;5052868;28;20289;-59
2023/06/26 07:20:27;;;;;;;11.00;7.67;;;;;;;;;;5053092;28;20048;-59
2023/06/26 07:22:52;;;;;;;8.07;7.25;;;;;;;;;;5037595;28;20771;-59
2023/06/26 07:25:18;;;;;;;11.00;7.05;;;;;;;;;;5053702;28;20032;-59
2023/06/26 07:27:44;;;;;;;9.77;7.30;;;;;;;;;;5072460;28;20560;-59
2023/06/26 07:30:10;;;;;;;8.35;6.47;;;;;;;;;;5059149;28;20306;-60
2023/06/26 07:32:35;;;;;;;9.27;6.93;;;;;;;;;;5072372;28;20044;-59
2023/06/26 07:35:00;;;;;;;9.43;6.57;;;;;;;;;;5071075;28;20037;-59
2023/06/26 07:37:26;;;;;;;8.23;6.40;;;;;;;;;;5071679;28;20124;-59
2023/06/26 07:39:51;;;;;;;10.40;6.90;;;;;;;;;;5048700;28;20029;-57
2023/06/26 07:42:16;;;;;;;7.57;6.37;;;;;;;;;;5079449;28;20131;-58
2023/06/26 07:44:41;;;;;;;8.03;6.50;;;;;;;;;;5070937;28;20040;-59
2023/06/26 07:47:07;;;;;;;8.90;5.85;;;;;;;;;;5076432;28;20286;-58
2023/06/26 07:49:32;;;;;;;8.10;5.90;;;;;;;;;;5068174;28;20063;-58
2023/06/26 07:51:57;;;;;;;6.85;5.75;;;;;;;;;;5054328;28;20040;-59
2023/06/26 07:54:23;;;;;;;6.83;5.37;;;;;;;;;;5055964;28;20546;-60
2023/06/26 07:56:58;;;;;;;6.37;5.33;;;;;;;;;;5038136;28;20044;-59
2023/06/26 07:59:23;;;;;;;7.43;5.68;;;;;;;;;;5062333;28;20684;-59
2023/06/26 08:01:49;;;;;;;6.57;5.30;;;;;;;;;;5068661;28;20056;-59
2023/06/26 08:04:15;;;;;;;7.65;5.40;;;;;;;;;;5066189;28;20047;-58
2023/06/26 08:06:40;;;;;;;7.13;5.60;;;;;;;;;;5058012;28;20037;-58
2023/06/26 08:09:08;;;;;;;7.27;5.60;;;;;;;;;;5075097;28;20343;-57
2023/06/26 08:11:34;;;;;;;7.18;5.47;;;;;;;;;;5055476;28;20278;-59
2023/06/26 08:13:59;;;;;;;7.18;5.50;;;;;;;;;;5077771;28;20029;-58
2023/06/26 08:16:24;;;;;;;7.22;5.13;;;;;;;;;;5076926;28;20036;-58
2023/06/26 08:18:49;;;;;;;7.22;4.88;;;;;;;;;;5073457;28;20881;-58
2023/06/26 08:21:15;;;;;;;6.67;5.00;;;;;;;;;;5051647;28;20137;-58
2023/06/26 08:23:40;;;;;;;6.73;5.30;;;;;;;;;;5074248;28;20060;-59
2023/06/26 08:26:05;;;;;;;6.63;5.17;;;;;;;;;;5073615;28;20679;-58
2023/06/26 08:28:30;;;;;;;8.37;5.17;;;;;;;;;;5070451;28;20364;-59
2023/06/26 08:30:55;;;;;;;6.67;5.10;;;;;;;;;;5051106;28;20888;-59
2023/06/26 08:33:21;;;;;;;7.33;4.97;;;;;;;;;;5074352;28;20274;-58
2023/06/26 08:35:46;;;;;;;7.03;5.50;;;;;;;;;;5069715;28;20043;-58
2023/06/26 08:38:11;;;;;;;8.47;5.47;;;;;;;;;;5071874;28;20282;-58
2023/06/26 08:40:38;;;;;;;6.10;4.83;;;;;;;;;;5076229;28;20840;-59
2023/06/26 08:43:04;;;;;;;7.35;4.85;;;;;;;;;;5052469;28;20055;-60
2023/06/26 08:45:29;;;;;;;5.90;5.30;;;;;;;;;;5052727;28;20548;-58
2023/06/26 08:47:54;;;;;;;6.43;5.15;;;;;;;;;;5052559;28;20036;-59
2023/06/26 08:50:20;;;;;;;6.63;4.87;;;;;;;;;;5035568;28;20072;-58
2023/06/26 08:52:53;;;;;;;7.45;4.82;;;;;;;;;;5059824;28;20047;-58
2023/06/26 08:55:19;;;;;;;6.15;4.72;;;;;;;;;;5048209;28;20047;-59
2023/06/26 08:57:44;;;;;;;7.23;4.67;;;;;;;;;;5041897;28;20044;-58
2023/06/26 09:00:09;;;;;;;10.53;5.50;;;;;;;;;;5067228;28;20037;-58
2023/06/26 09:02:36;;;;;;;7.35;4.80;;;;;;;;;;5061230;28;20036;-58
2023/06/26 09:05:01;;;;;;;5.78;4.13;;;;;;;;;;5075396;28;20039;-58
2023/06/26 09:07:26;;;;;;;5.78;4.70;;;;;;;;;;5059411;28;20033;-57
2023/06/26 09:09:52;;;;;;;7.53;5.07;;;;;;;;;;5070002;28;20036;-59
2023/06/26 09:12:17;;;;;;;6.45;4.53;;;;;;;;;;5054453;28;20044;-58
2023/06/26 09:14:43;;;;;;;6.07;4.30;;;;;;;;;;5053998;28;20117;-59
2023/06/26 09:17:08;;;;;;;7.15;4.65;;;;;;;;;;5055513;28;20285;-59
2023/06/26 09:19:36;;;;;;;7.72;4.35;;;;;;;;;;5048317;28;20035;-58
2023/06/26 09:22:01;;;;;;;6.82;4.57;;;;;;;;;;5068824;28;20094;-58
2023/06/26 09:24:27;;;;;;;8.07;4.87;;;;;;;;;;5078845;28;20046;-58
2023/06/26 09:26:52;;;;;;;6.40;4.53;;;;;;;;;;5054964;28;20314;-59
2023/06/26 09:29:17;;;;;;;6.13;4.33;;;;;;;;;;5072986;28;20032;-58
2023/06/26 09:31:43;;;;;;;7.10;3.93;;;;;;;;;;5052848;28;20283;-58
2023/06/26 09:34:08;;;;;;;6.28;4.47;;;;;;;;;;5055900;28;20293;-58
2023/06/26 09:36:36;;;;;;;6.78;4.60;;;;;;;;;;5052079;28;20028;-58
2023/06/26 09:39:04;;;;;;;6.10;4.35;;;;;;;;;;5069652;28;20032;-58
2023/06/26 09:41:30;;;;;;;6.03;4.43;;;;;;;;;;5064428;28;20430;-58
2023/06/26 09:43:56;;;;;;;6.18;5.03;;;;;;;;;;5063833;28;20541;-59
2023/06/26 09:46:24;;;;;;;5.70;4.32;;;;;;;;;;5054176;28;20028;-59
2023/06/26 09:48:50;;;;;;;5.85;4.70;;;;;;;;;;5084797;28;20051;-58
2023/06/26 09:51:16;;;;;;;5.97;4.43;;;;;;;;;;5051025;28;20028;-58
2023/06/26 09:53:41;;;;;;;6.80;4.40;;;;;;;;;;5060969;28;20032;-58
2023/06/26 09:56:07;;;;;;;4.88;4.38;;;;;;;;;;5070732;28;20096;-59
2023/06/26 09:58:32;;;;;;;7.72;4.72;;;;;;;;;;5048458;28;20510;-59
2023/06/26 10:00:57;;;;;;;5.78;4.30;;;;;;;;;;5065042;28;20094;-58
2023/06/26 10:03:23;;;;;;;6.30;4.50;;;;;;;;;;5053699;28;20041;-59
2023/06/26 10:05:48;;;;;;;6.60;4.70;;;;;;;;;;5062210;28;20024;-59
2023/06/26 10:08:14;;;;;;;5.77;4.33;;;;;;;;;;5053438;28;20098;-58
2023/06/26 10:10:39;;;;;;;7.28;4.82;;;;;;;;;;5058450;28;20271;-58
2023/06/26 10:13:08;;;;;;;4.93;4.00;;;;;;;;;;5066317;28;20055;-58
2023/06/26 10:15:35;;;;;;;5.80;4.18;;;;;;;;;;5065630;28;20279;-58
2023/06/26 10:18:00;;;;;;;6.32;4.53;;;;;;;;;;5050150;28;20666;-58
2023/06/26 10:20:26;;;;;;;5.03;3.90;;;;;;;;;;5058618;28;20028;-58
2023/06/26 10:22:52;;;;;;;4.93;4.03;;;;;;;;;;5055543;28;20029;-58
2023/06/26 10:25:18;;;;;;;5.80;4.50;;;;;;;;;;5045314;28;20041;-58
2023/06/26 10:27:44;;;;;;;5.80;4.20;;;;;;;;;;5056106;28;20032;-58
2023/06/26 10:30:16;;;;;;;5.80;4.28;;;;;;;;;;5055371;28;20123;-58
2023/06/26 10:32:42;;;;;;;7.13;4.40;;;;;;;;;;5050454;28;20036;-58
2023/06/26 10:35:07;;;;;;;8.03;4.00;;;;;;;;;;5058201;28;20544;-60
2023/06/26 10:37:45;;;;;;;6.00;4.37;;;;;;;;;;5038111;28;20036;-59
2023/06/26 10:40:10;;;;;;;6.55;4.25;;;;;;;;;;5061541;28;20283;-59
2023/06/26 10:42:36;;;;;;;5.95;4.43;;;;;;;;;;5069577;28;20034;-59
2023/06/26 10:45:19;;;;;;;8.27;4.65;;;;;;;;;;5069828;28;20067;-59
2023/06/26 10:47:47;;;;;;;6.65;4.03;;;;;;;;;;5053287;28;20030;-58
2023/06/26 10:50:19;;;;;;;6.60;4.55;;;;;;;;;;5037964;28;20039;-60
2023/06/26 10:52:44;;;;;;;6.63;4.07;;;;;;;;;;5069812;28;20040;-59
2023/06/26 10:55:09;;;;;;;5.80;4.40;;;;;;;;;;5062591;28;20036;-58
2023/06/26 10:57:35;;;;;;;8.50;4.33;;;;;;;;;;5062940;28;20028;-58
2023/06/26 11:00:13;;;;;;;8.02;4.13;;;;;;;;;;5072936;28;20282;-58
2023/06/26 11:02:51;;;;;;;6.43;4.30;;;;;;;;;;5061530;28;20147;-58
2023/06/26 11:05:26;;;;;;;6.13;4.70;;;;;;;;;;5073336;28;20048;-59
2023/06/26 11:08:07;;;;;;;6.70;4.63;;;;;;;;;;5038049;28;20036;-58
2023/06/26 11:10:49;;;;;;;4.82;4.05;;;;;;;;;;5074922;28;20067;-58
2023/06/26 11:13:14;;;;;;;5.43;4.10;;;;;;;;;;5072505;28;20089;-58
2023/06/26 11:15:40;;;;;;;6.97;4.20;;;;;;;;;;5075964;28;20028;-58
2023/06/26 11:18:05;;;;;;;5.28;4.25;;;;;;;;;;5055527;28;20040;-58
2023/06/26 11:20:30;;;;;;;7.60;4.77;;;;;;;;;;5070638;28;20106;-59
2023/06/26 11:22:56;;;;;;;6.63;4.43;;;;;;;;;;5068638;28;20293;-58
2023/06/26 11:25:21;;;;;;;6.37;4.53;;;;;;;;;;5061062;28;20040;-58
2023/06/26 11:27:46;;;;;;;5.13;4.20;;;;;;;;;;5068475;28;20331;-60
2023/06/26 11:30:22;;;;;;;7.72;4.10;;;;;;;;;;5068516;28;20033;-58
2023/06/26 11:32:47;;;;;;;5.75;4.45;;;;;;;;;;5028727;28;20036;-57
2023/06/26 11:35:13;;;;;;;6.22;4.28;;;;;;;;;;5061625;28;20536;-58
2023/06/26 11:37:39;;;;;;;8.23;4.90;;;;;;;;;;5064218;28;20032;-57
2023/06/26 11:40:21;;;;;;;5.18;4.28;;;;;;;;;;5064994;28;20028;-59
2023/06/26 11:42:46;;;;;;;5.22;4.05;;;;;;;;;;5072220;28;20040;-61
2023/06/26 11:45:11;;;;;;;6.67;4.57;;;;;;;;;;5071920;28;20097;-58
2023/06/26 11:47:37;;;;;;;6.80;4.47;;;;;;;;;;5064234;28;20795;-58
2023/06/26 11:50:02;;;;;;;5.38;3.90;;;;;;;;;;5047436;28;20848;-58
2023/06/26 11:52:27;;;;;;;5.43;3.80;;;;;;;;;;5058890;28;20579;-58
2023/06/26 11:54:52;;;;;;;6.80;4.97;;;;;;;;;;5045209;28;20036;-58
2023/06/26 11:57:19;;;;;;;5.70;4.50;;;;;;;;;;5052018;28;20029;-60
2023/06/26 11:59:44;;;;;;;5.25;3.95;;;;;;;;;;5074722;28;20056;-58
2023/06/26 12:02:10;;;;;;;6.67;4.13;;;;;;;;;;5050890;28;20510;-58
2023/06/26 12:04:36;;;;;;;5.95;4.25;;;;;;;;;;5057430;28;20271;-58
2023/06/26 12:07:03;;;;;;;5.90;4.25;;;;;;;;;;5062013;28;20043;-60
2023/06/26 12:09:30;;;;;;;7.22;4.53;;;;;;;;;;5059368;28;20033;-58
2023/06/26 12:11:55;;;;;;;6.68;4.70;;;;;;;;;;5051666;28;20086;-59
2023/06/26 12:14:20;;;;;;;5.65;4.60;;;;;;;;;;5072557;28;20447;-58
2023/06/26 12:16:46;;;;;;;5.40;4.13;;;;;;;;;;5067521;28;20036;-59
2023/06/26 12:19:11;;;;;;;6.07;4.28;;;;;;;;;;5056402;28;20140;-58
2023/06/26 12:21:37;;;;;;;5.93;4.60;;;;;;;;;;5079757;28;20148;-58
2023/06/26 12:24:02;;;;;;;6.73;4.50;;;;;;;;;;5069285;28;20032;-57
2023/06/26 12:26:28;;;;;;;5.32;3.92;;;;;;;;;;5050321;28;20044;-58
2023/06/26 12:28:53;;;;;;;7.68;4.43;;;;;;;;;;5052353;28;20058;-58
2023/06/26 12:31:20;;;;;;;5.13;3.87;;;;;;;;;;5058200;28;20037;-58
2023/06/26 12:33:45;;;;;;;5.38;4.45;;;;;;;;;;5065654;28;20401;-59
2023/06/26 12:36:13;;;;;;;5.27;4.37;;;;;;;;;;5078740;28;20048;-58
2023/06/26 12:38:39;;;;;;;6.50;4.57;;;;;;;;;;5055210;28;20027;-59
2023/06/26 12:41:04;;;;;;;5.45;4.00;;;;;;;;;;5079415;28;20028;-59
2023/06/26 12:43:29;;;;;;;7.77;4.90;;;;;;;;;;5034597;28;20469;-58
2023/06/26 12:45:55;;;;;;;5.23;4.20;;;;;;;;;;5082133;28;20492;-59
2023/06/26 12:48:21;;;;;;;5.25;4.55;;;;;;;;;;5070667;28;20040;-59
2023/06/26 12:50:46;;;;;;;6.40;4.30;;;;;;;;;;5076746;28;20494;-59
2023/06/26 12:53:11;;;;;;;5.85;4.32;;;;;;;;;;5051686;28;20012;-58
2023/06/26 12:55:37;;;;;;;7.13;4.47;;;;;;;;;;5072941;28;20016;-58
2023/06/26 12:58:02;;;;;;;6.20;4.50;;;;;;;;;;5071742;28;20826;-58
2023/06/26 13:00:27;;;;;;;6.57;4.90;;;;;;;;;;5076045;28;20133;-58
2023/06/26 13:02:52;;;;;;;6.80;4.40;;;;;;;;;;5067994;28;20012;-57
2023/06/26 13:05:18;;;;;;;7.77;4.90;;;;;;;;;;5038013;28;20031;-58
2023/06/26 13:07:43;;;;;;;6.47;4.72;;;;;;;;;;5048719;28;20024;-59
2023/06/26 13:10:08;;;;;;;6.47;4.50;;;;;;;;;;5035603;28;20024;-58
2023/06/26 13:12:34;;;;;;;6.47;4.88;;;;;;;;;;5060678;28;20032;-58
2023/06/26 13:14:59;;;;;;;6.10;4.60;;;;;;;;;;5043061;27;20023;-58
2023/06/26 13:17:24;;;;;;;7.50;4.70;;;;;;;;;;5082240;28;20046;-58
2023/06/26 13:19:49;;;;;;;6.03;4.73;;;;;;;;;;5073169;28;20271;-58
2023/06/26 13:22:15;;;;;;;6.00;4.57;;;;;;;;;;5073061;28;20040;-58
2023/06/26 13:24:41;;;;;;;7.33;4.87;;;;;;;;;;5075257;28;20088;-59
2023/06/26 13:27:06;;;;;;;5.45;4.50;;;;;;;;;;5077440;28;20024;-59
2023/06/26 13:29:32;;;;;;;5.40;4.20;;;;;;;;;;5076252;28;20524;-58
2023/06/26 13:31:57;;;;;;;6.72;4.95;;;;;;;;;;5073593;28;20021;-59
2023/06/26 13:34:23;;;;;;;6.05;4.25;;;;;;;;;;5050182;28;20031;-58
2023/06/26 13:36:48;;;;;;;6.32;4.65;;;;;;;;;;5072305;28;20048;-58
2023/06/26 13:39:13;;;;;;;6.83;4.47;;;;;;;;;;5054747;28;20477;-58
2023/06/26 13:41:38;;;;;;;5.33;4.50;;;;;;;;;;5075474;28;20327;-58
2023/06/26 13:44:04;;;;;;;5.60;4.43;;;;;;;;;;5076445;28;20088;-59
2023/06/26 13:46:29;;;;;;;5.97;4.30;;;;;;;;;;5071605;28;20794;-58
2023/06/26 13:48:54;;;;;;;5.37;3.80;;;;;;;;;;5051032;28;20569;-58
2023/06/26 13:51:19;;;;;;;7.57;4.33;;;;;;;;;;5082072;28;20047;-58
2023/06/26 13:53:45;;;;;;;7.27;4.33;;;;;;;;;;5061842;28;20298;-58
2023/06/26 13:56:10;;;;;;;8.30;4.37;;;;;;;;;;5081681;28;20353;-59
2023/06/26 13:58:36;;;;;;;4.85;4.30;;;;;;;;;;5058175;28;20779;-58
2023/06/26 14:01:01;;;;;;;6.18;4.60;;;;;;;;;;5060167;28;20043;-59
2023/06/26 14:03:27;;;;;;;7.03;4.67;;;;;;;;;;5055704;28;20021;-58
2023/06/26 14:05:52;;;;;;;5.57;4.30;;;;;;;;;;5064117;28;20323;-58
2023/06/26 14:08:17;;;;;;;8.00;4.87;;;;;;;;;;5081880;28;20024;-58
2023/06/26 14:10:43;;;;;;;5.53;4.43;;;;;;;;;;5064653;28;20024;-59
2023/06/26 14:13:08;;;;;;;6.10;4.43;;;;;;;;;;5055287;28;20271;-59
2023/06/26 14:15:34;;;;;;;6.32;4.90;;;;;;;;;;5074669;28;20077;-58
2023/06/26 14:17:59;;;;;;;5.65;4.72;;;;;;;;;;5053876;28;20044;-58
2023/06/26 14:20:24;;;;;;;6.73;4.70;;;;;;;;;;5074698;28;20041;-57
2023/06/26 14:22:49;;;;;;;7.03;4.40;;;;;;;;;;5067154;28;20362;-57
2023/06/26 14:25:15;;;;;;;5.63;4.30;;;;;;;;;;5074739;28;20289;-57